Time;durP1;ratioP1;P1;durP2;ratioP2;P2;SDS_P1;SDS_P2;PMS_P1;PMS_P2;Temp;Humidity;BMP_temperature;BMP_pressure;BME280_temperature;BME280_humidity;BME280_pressure;Samples;Min_cycle;Max_cycle;Signal;HPM_P1;HPM_P2
2021/03/19 00:00:50;;;;;;;3.75;1.70;;;;;;;;;;5079895;28;20047;-60
2021/03/19 00:03:16;;;;;;;3.42;1.52;;;;;;;;;;5082084;28;20033;-61
2021/03/19 00:05:43;;;;;;;4.07;1.70;;;;;;;;;;5078764;28;20055;-61
2021/03/19 00:08:09;;;;;;;4.55;1.38;;;;;;;;;;5082229;28;20608;-60
2021/03/19 00:10:35;;;;;;;3.63;1.92;;;;;;;;;;5065718;28;20033;-61
2021/03/19 00:13:02;;;;;;;5.05;1.58;;;;;;;;;;5076787;28;20067;-61
2021/03/19 00:15:30;;;;;;;2.63;1.45;;;;;;;;;;5078590;28;20075;-61
2021/03/19 00:17:56;;;;;;;4.57;1.67;;;;;;;;;;5082116;28;20051;-60
2021/03/19 00:20:23;;;;;;;4.43;1.40;;;;;;;;;;5076621;28;20092;-60
2021/03/19 00:22:49;;;;;;;4.45;1.70;;;;;;;;;;5082118;28;20055;-60
2021/03/19 00:25:15;;;;;;;2.97;1.40;;;;;;;;;;5078460;28;20044;-60
2021/03/19 00:27:43;;;;;;;7.88;2.08;;;;;;;;;;5067227;28;20114;-61
2021/03/19 00:30:10;;;;;;;2.58;1.30;;;;;;;;;;5059657;28;20075;-60
2021/03/19 00:32:36;;;;;;;4.95;1.40;;;;;;;;;;5063264;28;20036;-60
2021/03/19 00:35:03;;;;;;;6.15;2.22;;;;;;;;;;5060233;28;20076;-60
2021/03/19 00:37:31;;;;;;;5.97;1.88;;;;;;;;;;5061434;28;20032;-60
2021/03/19 00:39:57;;;;;;;4.10;1.77;;;;;;;;;;5059995;28;20053;-60
2021/03/19 00:42:23;;;;;;;6.28;1.67;;;;;;;;;;5059511;28;20056;-60
2021/03/19 00:44:49;;;;;;;5.70;1.58;;;;;;;;;;5061402;28;20045;-61
2021/03/19 00:47:16;;;;;;;4.00;1.58;;;;;;;;;;5059989;28;20047;-60
2021/03/19 00:49:41;;;;;;;6.55;1.60;;;;;;;;;;5060537;28;20040;-60
2021/03/19 00:52:07;;;;;;;6.40;2.10;;;;;;;;;;5058486;28;20045;-60
2021/03/19 00:54:34;;;;;;;4.70;1.48;;;;;;;;;;5062321;28;20056;-61
2021/03/19 00:57:01;;;;;;;3.38;1.77;;;;;;;;;;5056285;28;20033;-61
2021/03/19 00:59:27;;;;;;;2.72;1.52;;;;;;;;;;5061655;28;20032;-61
2021/03/19 01:01:53;;;;;;;4.90;1.52;;;;;;;;;;5057943;28;20107;-60
2021/03/19 01:04:19;;;;;;;4.65;1.80;;;;;;;;;;5060636;28;20052;-60
2021/03/19 01:06:45;;;;;;;4.13;1.63;;;;;;;;;;5057282;28;20053;-60
2021/03/19 01:09:11;;;;;;;4.57;2.00;;;;;;;;;;5077330;28;20102;-61
2021/03/19 01:11:38;;;;;;;7.05;1.58;;;;;;;;;;5056473;28;20053;-60
2021/03/19 01:14:04;;;;;;;7.10;1.77;;;;;;;;;;5060825;28;20056;-61
2021/03/19 01:16:30;;;;;;;4.28;1.60;;;;;;;;;;5059992;28;20052;-60
2021/03/19 01:18:56;;;;;;;5.95;1.70;;;;;;;;;;5058420;28;20043;-61
2021/03/19 01:21:22;;;;;;;5.00;1.80;;;;;;;;;;5079092;28;20040;-60
2021/03/19 01:23:48;;;;;;;6.50;1.67;;;;;;;;;;5057722;28;20110;-60
2021/03/19 01:26:15;;;;;;;6.35;1.70;;;;;;;;;;5060383;28;20048;-61
2021/03/19 01:28:42;;;;;;;3.97;1.80;;;;;;;;;;5043656;28;20053;-61
2021/03/19 01:31:08;;;;;;;4.03;1.63;;;;;;;;;;5038979;28;20049;-61
2021/03/19 01:33:34;;;;;;;3.65;1.52;;;;;;;;;;5036632;28;20513;-61
2021/03/19 01:36:07;;;;;;;4.60;1.65;;;;;;;;;;5039883;28;20057;-61
2021/03/19 01:38:33;;;;;;;6.18;2.10;;;;;;;;;;5048218;28;20033;-61
2021/03/19 01:40:59;;;;;;;4.45;2.05;;;;;;;;;;5060806;28;20033;-61
2021/03/19 01:43:25;;;;;;;6.00;1.80;;;;;;;;;;5055853;28;20518;-60
2021/03/19 01:46:14;;;;;;;7.63;1.85;;;;;;;;;;5046291;28;20049;-62
2021/03/19 01:49:10;;;;;;;4.22;1.63;;;;;;;;;;4955158;28;20108;-62
2021/03/19 01:51:55;;;;;;;6.53;2.10;;;;;;;;;;4982947;28;20102;-60
2021/03/19 01:54:39;;;;;;;3.30;1.73;;;;;;;;;;5047921;28;20021;-60
2021/03/19 01:57:25;;;;;;;4.32;1.88;;;;;;;;;;5068491;28;20048;-60
2021/03/19 02:00:09;;;;;;;4.75;2.33;;;;;;;;;;5060438;28;20490;-62
2021/03/19 02:02:54;;;;;;;9.98;2.10;;;;;;;;;;5064309;28;20051;-61
2021/03/19 02:05:39;;;;;;;5.63;2.20;;;;;;;;;;5064898;28;20048;-61
2021/03/19 02:08:23;;;;;;;3.53;1.75;;;;;;;;;;5080636;28;20032;-62
2021/03/19 02:11:08;;;;;;;4.53;1.70;;;;;;;;;;5073027;28;20117;-62
2021/03/19 02:14:01;;;;;;;4.63;1.90;;;;;;;;;;5067073;28;20032;-61
2021/03/19 02:16:45;;;;;;;6.53;1.80;;;;;;;;;;5038959;28;20174;-62
2021/03/19 02:19:30;;;;;;;9.05;1.77;;;;;;;;;;5080056;28;20043;-60
2021/03/19 02:22:15;;;;;;;7.85;1.90;;;;;;;;;;5084044;28;20040;-60
2021/03/19 02:24:59;;;;;;;5.20;1.88;;;;;;;;;;5077999;28;20047;-60
2021/03/19 02:27:44;;;;;;;7.97;2.28;;;;;;;;;;5065627;28;20045;-60
2021/03/19 02:30:29;;;;;;;6.15;2.03;;;;;;;;;;5066403;28;20044;-61
2021/03/19 02:32:57;;;;;;;6.40;1.90;;;;;;;;;;5096042;28;20436;-60
2021/03/19 02:35:23;;;;;;;5.70;2.20;;;;;;;;;;5096465;28;20043;-60
2021/03/19 02:37:50;;;;;;;8.95;1.98;;;;;;;;;;5104446;28;20287;-60
2021/03/19 02:40:17;;;;;;;6.72;2.33;;;;;;;;;;5084159;28;20035;-62
2021/03/19 02:42:43;;;;;;;5.28;2.03;;;;;;;;;;5089387;28;20036;-61
2021/03/19 02:45:10;;;;;;;3.88;1.75;;;;;;;;;;5112139;27;20149;-62
2021/03/19 02:47:36;;;;;;;4.88;2.50;;;;;;;;;;5087248;28;20050;-60
2021/03/19 02:50:04;;;;;;;4.50;1.70;;;;;;;;;;5072176;28;20044;-61
2021/03/19 02:52:33;;;;;;;7.25;2.58;;;;;;;;;;5086051;28;20066;-60
2021/03/19 02:54:59;;;;;;;5.10;2.17;;;;;;;;;;5065639;28;20068;-61
2021/03/19 02:57:25;;;;;;;6.95;2.30;;;;;;;;;;5063718;28;20032;-61
2021/03/19 02:59:50;;;;;;;3.60;1.90;;;;;;;;;;5084050;28;20076;-61
2021/03/19 03:02:16;;;;;;;6.45;2.15;;;;;;;;;;5075144;28;20051;-60
2021/03/19 03:04:42;;;;;;;4.75;1.83;;;;;;;;;;5088011;28;20137;-59
2021/03/19 03:07:20;;;;;;;6.70;1.98;;;;;;;;;;5073003;28;20040;-60
2021/03/19 03:09:46;;;;;;;8.38;2.33;;;;;;;;;;5086182;28;20105;-60
2021/03/19 03:12:12;;;;;;;5.53;2.25;;;;;;;;;;5079779;28;20115;-60
2021/03/19 03:14:38;;;;;;;5.28;2.10;;;;;;;;;;5085985;28;20036;-61
2021/03/19 03:17:05;;;;;;;6.80;2.45;;;;;;;;;;5074294;28;20545;-61
2021/03/19 03:19:31;;;;;;;5.47;1.92;;;;;;;;;;5065763;28;20036;-60
2021/03/19 03:21:57;;;;;;;6.50;2.55;;;;;;;;;;5068768;28;20043;-60
2021/03/19 03:24:27;;;;;;;5.40;1.85;;;;;;;;;;5088508;28;20040;-59
2021/03/19 03:26:55;;;;;;;4.28;1.70;;;;;;;;;;5081162;28;20052;-60
2021/03/19 03:29:21;;;;;;;5.40;2.05;;;;;;;;;;5101962;28;20036;-59
2021/03/19 03:31:48;;;;;;;6.00;2.17;;;;;;;;;;5100718;28;20040;-60
2021/03/19 03:34:14;;;;;;;4.50;2.08;;;;;;;;;;5081114;28;20040;-60
2021/03/19 03:36:40;;;;;;;7.40;2.13;;;;;;;;;;5082272;28;20051;-60
2021/03/19 03:39:08;;;;;;;4.47;1.92;;;;;;;;;;5116678;28;20050;-60
2021/03/19 03:41:35;;;;;;;6.18;1.90;;;;;;;;;;5105088;27;20509;-60
2021/03/19 03:44:02;;;;;;;7.18;2.40;;;;;;;;;;5096824;28;20035;-60
2021/03/19 03:46:29;;;;;;;6.00;2.10;;;;;;;;;;5085736;28;20044;-60
2021/03/19 03:48:56;;;;;;;6.85;2.67;;;;;;;;;;5093625;27;20032;-60
2021/03/19 03:51:23;;;;;;;4.75;1.70;;;;;;;;;;5104590;27;20036;-61
2021/03/19 03:53:49;;;;;;;6.07;2.10;;;;;;;;;;5090691;28;20052;-60
2021/03/19 03:56:15;;;;;;;4.72;1.77;;;;;;;;;;5080439;28;20046;-60
2021/03/19 03:58:43;;;;;;;5.45;1.85;;;;;;;;;;5078885;28;20040;-61
2021/03/19 04:01:09;;;;;;;6.00;2.13;;;;;;;;;;5082712;28;20345;-60
2021/03/19 04:03:35;;;;;;;4.38;1.85;;;;;;;;;;5077918;28;20055;-60
2021/03/19 04:06:02;;;;;;;6.07;2.45;;;;;;;;;;5081971;28;20032;-60
2021/03/19 04:08:29;;;;;;;7.45;2.08;;;;;;;;;;5079400;28;20056;-61
2021/03/19 04:10:56;;;;;;;4.93;1.98;;;;;;;;;;5084061;28;20090;-61
2021/03/19 04:13:22;;;;;;;8.32;2.10;;;;;;;;;;5081940;28;20036;-60
2021/03/19 04:15:51;;;;;;;7.75;3.00;;;;;;;;;;5080489;28;20099;-60
2021/03/19 04:18:18;;;;;;;9.95;1.98;;;;;;;;;;5083003;28;20052;-61
2021/03/19 04:20:45;;;;;;;10.63;2.22;;;;;;;;;;5095909;28;20048;-60
2021/03/19 04:23:11;;;;;;;7.78;2.20;;;;;;;;;;5102341;28;20028;-62
2021/03/19 04:25:37;;;;;;;8.32;2.53;;;;;;;;;;5082749;28;20037;-60
2021/03/19 04:28:05;;;;;;;7.60;2.42;;;;;;;;;;5081705;28;20036;-59
2021/03/19 04:30:31;;;;;;;5.78;2.35;;;;;;;;;;5089857;28;20036;-60
2021/03/19 04:32:59;;;;;;;7.70;2.70;;;;;;;;;;5102619;28;20047;-59
2021/03/19 04:35:26;;;;;;;12.68;2.72;;;;;;;;;;5096797;28;20032;-60
2021/03/19 04:37:53;;;;;;;7.32;2.38;;;;;;;;;;5101873;28;20043;-61
2021/03/19 04:40:20;;;;;;;5.70;2.17;;;;;;;;;;5098542;27;20032;-60
2021/03/19 04:42:46;;;;;;;4.97;1.83;;;;;;;;;;5101106;28;20043;-60
2021/03/19 04:45:13;;;;;;;10.45;2.30;;;;;;;;;;5084320;28;20162;-61
2021/03/19 04:47:39;;;;;;;8.00;2.53;;;;;;;;;;5082232;28;20043;-61
2021/03/19 04:50:09;;;;;;;7.30;2.38;;;;;;;;;;5080904;28;20036;-60
2021/03/19 04:52:35;;;;;;;7.38;2.00;;;;;;;;;;5101772;28;20044;-61
2021/03/19 04:55:02;;;;;;;6.70;2.33;;;;;;;;;;5099744;28;20043;-61
2021/03/19 04:57:29;;;;;;;7.07;2.35;;;;;;;;;;5079266;28;20040;-62
2021/03/19 04:59:55;;;;;;;8.73;2.33;;;;;;;;;;5082235;28;20055;-62
2021/03/19 05:02:30;;;;;;;6.30;2.22;;;;;;;;;;5078143;28;20025;-60
2021/03/19 05:04:56;;;;;;;7.90;2.25;;;;;;;;;;5081595;28;20036;-61
2021/03/19 05:07:23;;;;;;;6.22;2.35;;;;;;;;;;5078313;28;20049;-61
2021/03/19 05:09:49;;;;;;;5.72;2.40;;;;;;;;;;5082748;28;20061;-60
2021/03/19 05:12:15;;;;;;;6.53;2.05;;;;;;;;;;5091598;28;20052;-61
2021/03/19 05:14:41;;;;;;;12.02;2.35;;;;;;;;;;5102750;28;20050;-61
2021/03/19 05:17:07;;;;;;;8.07;2.45;;;;;;;;;;5086611;28;20037;-61
2021/03/19 05:19:33;;;;;;;7.10;2.45;;;;;;;;;;5080132;28;20051;-61
2021/03/19 05:21:59;;;;;;;6.05;2.10;;;;;;;;;;5077788;28;20040;-61
2021/03/19 05:24:26;;;;;;;6.95;2.00;;;;;;;;;;5080529;28;20032;-60
2021/03/19 05:26:52;;;;;;;5.28;1.85;;;;;;;;;;5082164;28;20873;-60
2021/03/19 05:29:18;;;;;;;4.30;2.03;;;;;;;;;;5101429;28;20088;-60
2021/03/19 05:31:44;;;;;;;5.22;2.20;;;;;;;;;;5093821;28;20877;-61
2021/03/19 05:34:13;;;;;;;6.85;2.15;;;;;;;;;;5080631;28;20172;-61
2021/03/19 05:36:39;;;;;;;6.45;1.85;;;;;;;;;;5079264;28;20048;-61
2021/03/19 05:39:06;;;;;;;5.53;1.70;;;;;;;;;;5082863;28;20040;-62
2021/03/19 05:41:34;;;;;;;5.93;1.65;;;;;;;;;;5083559;28;20040;-61
2021/03/19 05:44:02;;;;;;;4.85;1.55;;;;;;;;;;5082093;28;20056;-61
2021/03/19 05:46:30;;;;;;;3.65;1.48;;;;;;;;;;5104648;28;20036;-61
2021/03/19 05:48:56;;;;;;;;;;;;;;;;;;5084475;28;20044;-61
2021/03/19 05:51:24;;;;;;;7.35;1.90;;;;;;;;;;5081788;28;19931;-62
2021/03/19 05:53:53;;;;;;;5.35;1.75;;;;;;;;;;5080639;28;20089;-63
2021/03/19 05:56:19;;;;;;;;;;;;;;;;;;5083347;28;20044;-60
2021/03/19 05:58:46;;;;;;;8.57;1.77;;;;;;;;;;5089127;28;20008;-61
2021/03/19 06:01:12;;;;;;;9.25;2.20;;;;;;;;;;5103889;28;20036;-58
2021/03/19 06:03:39;;;;;;;5.90;1.70;;;;;;;;;;5092845;28;20038;-61
2021/03/19 06:06:07;;;;;;;9.90;1.95;;;;;;;;;;5084099;28;20056;-61
2021/03/19 06:08:34;;;;;;;6.10;1.92;;;;;;;;;;5079080;28;20466;-60
2021/03/19 06:11:05;;;;;;;7.25;1.90;;;;;;;;;;5083761;28;20036;-63
2021/03/19 06:13:39;;;;;;;7.13;1.80;;;;;;;;;;5084994;28;20032;-60
2021/03/19 06:16:29;;;;;;;9.00;2.22;;;;;;;;;;5090985;28;20048;-62
2021/03/19 06:18:56;;;;;;;5.55;2.05;;;;;;;;;;5072638;27;20044;-62
2021/03/19 06:21:24;;;;;;;5.18;2.13;;;;;;;;;;5089438;27;20036;-61
2021/03/19 06:24:00;;;;;;;5.95;2.22;;;;;;;;;;5086337;28;20159;-61
2021/03/19 06:26:28;;;;;;;6.68;2.13;;;;;;;;;;5090426;28;20048;-62
2021/03/19 06:29:05;;;;;;;8.15;1.80;;;;;;;;;;5087165;28;20177;-59
2021/03/19 06:31:33;;;;;;;7.15;2.30;;;;;;;;;;5088308;28;20024;-60
2021/03/19 06:34:04;;;;;;;5.55;2.38;;;;;;;;;;5094656;28;20044;-60
2021/03/19 06:36:31;;;;;;;6.40;2.17;;;;;;;;;;5092549;28;20118;-59
2021/03/19 06:39:06;;;;;;;9.00;2.58;;;;;;;;;;5089761;28;20041;-59
2021/03/19 06:41:33;;;;;;;6.90;2.50;;;;;;;;;;5083720;28;20039;-60
2021/03/19 06:44:16;;;;;;;6.03;2.13;;;;;;;;;;5087349;28;20044;-61
2021/03/19 06:46:45;;;;;;;7.10;2.60;;;;;;;;;;5091445;28;20109;-60
2021/03/19 06:49:11;;;;;;;4.72;2.15;;;;;;;;;;5093766;28;20048;-60
2021/03/19 06:51:38;;;;;;;6.70;2.17;;;;;;;;;;5089948;28;20051;-60
2021/03/19 06:54:05;;;;;;;5.95;2.08;;;;;;;;;;5097159;28;20052;-60
2021/03/19 06:56:32;;;;;;;4.85;1.75;;;;;;;;;;5089925;28;20046;-61
2021/03/19 06:58:58;;;;;;;6.38;2.00;;;;;;;;;;5092689;28;20039;-63
2021/03/19 07:01:35;;;;;;;5.18;1.83;;;;;;;;;;5091291;28;20501;-61
2021/03/19 07:04:10;;;;;;;6.57;1.73;;;;;;;;;;5093218;28;20062;-60
2021/03/19 07:06:52;;;;;;;4.80;1.88;;;;;;;;;;5089055;28;20035;-59
2021/03/19 07:09:24;;;;;;;6.65;1.65;;;;;;;;;;5114488;27;20111;-61
2021/03/19 07:12:17;;;;;;;5.38;1.48;;;;;;;;;;5090103;28;20031;-60
2021/03/19 07:14:51;;;;;;;8.27;1.85;;;;;;;;;;5050623;28;20120;-55
2021/03/19 07:17:24;;;;;;;4.05;1.60;;;;;;;;;;5082159;28;20048;-58
2021/03/19 07:19:56;;;;;;;6.78;2.03;;;;;;;;;;5085891;28;20074;-60
2021/03/19 07:22:32;;;;;;;11.05;2.00;;;;;;;;;;5082021;28;20040;-60
2021/03/19 07:25:10;;;;;;;4.22;1.60;;;;;;;;;;5085726;28;20046;-62
2021/03/19 07:27:41;;;;;;;3.80;1.83;;;;;;;;;;5081956;28;20055;-61
2021/03/19 07:30:13;;;;;;;3.17;1.50;;;;;;;;;;5084156;28;20044;-58
2021/03/19 07:32:57;;;;;;;9.52;2.30;;;;;;;;;;5081960;28;20032;-60
2021/03/19 07:35:38;;;;;;;6.50;1.60;;;;;;;;;;5084416;28;20052;-61
2021/03/19 07:38:24;;;;;;;4.82;1.75;;;;;;;;;;5080808;28;20469;-56
2021/03/19 07:41:07;;;;;;;3.65;1.25;;;;;;;;;;5103809;28;20532;-60
2021/03/19 07:43:40;;;;;;;3.10;1.20;;;;;;;;;;5070072;28;20340;-60
2021/03/19 07:46:19;;;;;;;4.72;1.58;;;;;;;;;;5083070;28;20125;-62
2021/03/19 07:48:49;;;;;;;3.65;1.27;;;;;;;;;;5092161;28;20311;-59
2021/03/19 07:51:19;;;;;;;3.83;1.30;;;;;;;;;;5081345;28;20052;-61
2021/03/19 07:53:58;;;;;;;3.50;1.33;;;;;;;;;;5077408;28;20125;-58
2021/03/19 07:56:38;;;;;;;3.70;1.27;;;;;;;;;;5082240;28;20036;-61
2021/03/19 07:59:09;;;;;;;4.35;1.40;;;;;;;;;;5070909;28;20092;-62
2021/03/19 08:01:36;;;;;;;3.17;1.25;;;;;;;;;;5063358;28;20055;-62
2021/03/19 08:04:10;;;;;;;6.53;1.40;;;;;;;;;;5060323;28;20047;-62
2021/03/19 08:06:39;;;;;;;2.63;1.00;;;;;;;;;;5065634;28;20058;-63
2021/03/19 08:09:10;;;;;;;4.85;1.30;;;;;;;;;;5077686;28;20033;-61
2021/03/19 08:11:40;;;;;;;4.63;1.35;;;;;;;;;;5083059;28;20056;-61
2021/03/19 08:14:13;;;;;;;4.05;1.15;;;;;;;;;;5082016;28;20048;-62
2021/03/19 08:16:41;;;;;;;5.18;1.20;;;;;;;;;;5080579;28;20055;-58
2021/03/19 08:19:19;;;;;;;3.50;0.98;;;;;;;;;;5087754;28;20043;-60
2021/03/19 08:21:50;;;;;;;4.60;1.20;;;;;;;;;;5101967;28;20056;-62
2021/03/19 08:24:35;;;;;;;3.97;1.00;;;;;;;;;;5087814;28;20154;-59
2021/03/19 08:27:07;;;;;;;3.97;1.15;;;;;;;;;;5064546;28;20048;-59
2021/03/19 08:29:39;;;;;;;3.30;1.10;;;;;;;;;;5059437;28;20493;-60
2021/03/19 08:32:07;;;;;;;2.13;0.82;;;;;;;;;;5098571;28;20087;-61
2021/03/19 08:34:37;;;;;;;2.63;1.15;;;;;;;;;;5076623;28;20036;-59
2021/03/19 08:37:10;;;;;;;2.47;1.17;;;;;;;;;;5081777;28;20384;-59
2021/03/19 08:39:38;;;;;;;2.03;0.80;;;;;;;;;;5073180;28;20028;-59
2021/03/19 08:42:07;;;;;;;2.33;1.02;;;;;;;;;;5067353;28;20036;-59
2021/03/19 08:44:35;;;;;;;3.10;1.13;;;;;;;;;;5077589;28;20036;-59
2021/03/19 08:47:08;;;;;;;3.40;0.90;;;;;;;;;;5064967;28;20117;-60
2021/03/19 08:49:40;;;;;;;5.00;1.60;;;;;;;;;;5064474;28;20068;-60
2021/03/19 08:52:18;;;;;;;4.13;1.13;;;;;;;;;;5085016;28;20043;-59
2021/03/19 08:54:44;;;;;;;2.90;0.88;;;;;;;;;;5088386;28;20048;-59
2021/03/19 08:57:29;;;;;;;1.90;0.93;;;;;;;;;;5091340;28;20036;-59
2021/03/19 08:59:56;;;;;;;13.07;1.83;;;;;;;;;;5044091;28;20045;-60
2021/03/19 09:02:41;;;;;;;5.38;1.38;;;;;;;;;;5065104;28;20105;-59
2021/03/19 09:05:15;;;;;;;2.65;0.93;;;;;;;;;;5093525;28;20048;-57
2021/03/19 09:08:01;;;;;;;6.80;1.60;;;;;;;;;;5066434;28;20041;-59
2021/03/19 09:10:45;;;;;;;4.03;1.40;;;;;;;;;;5059696;28;20036;-58
2021/03/19 09:13:13;;;;;;;5.45;1.50;;;;;;;;;;5082928;28;20044;-59
2021/03/19 09:15:42;;;;;;;9.68;1.70;;;;;;;;;;5069699;28;20051;-58
2021/03/19 09:18:28;;;;;;;5.53;1.90;;;;;;;;;;5068009;28;20118;-58
2021/03/19 09:21:03;;;;;;;6.05;1.33;;;;;;;;;;5064937;28;20044;-59
2021/03/19 09:23:31;;;;;;;3.97;0.98;;;;;;;;;;5067329;28;20072;-58
2021/03/19 09:26:17;;;;;;;7.70;1.40;;;;;;;;;;5064574;28;20118;-59
2021/03/19 09:29:00;;;;;;;4.18;1.30;;;;;;;;;;5066528;28;20125;-59
2021/03/19 09:31:36;;;;;;;2.63;1.00;;;;;;;;;;5076524;28;20117;-60
2021/03/19 09:34:10;;;;;;;7.65;1.63;;;;;;;;;;5082770;28;20071;-58
2021/03/19 09:36:55;;;;;;;3.17;1.08;;;;;;;;;;5102925;28;20120;-59
2021/03/19 09:39:39;;;;;;;2.85;1.17;;;;;;;;;;5081694;28;20064;-60
2021/03/19 09:42:13;;;;;;;2.70;1.02;;;;;;;;;;5079923;28;20067;-60
2021/03/19 09:44:39;;;;;;;2.63;1.00;;;;;;;;;;5075032;28;20157;-58
2021/03/19 09:47:07;;;;;;;4.25;0.80;;;;;;;;;;5078755;28;20048;-58
2021/03/19 09:49:33;;;;;;;1.73;0.82;;;;;;;;;;5083261;28;20060;-58
2021/03/19 09:52:10;;;;;;;3.78;1.20;;;;;;;;;;5082403;28;21121;-59
2021/03/19 09:54:36;;;;;;;9.23;1.30;;;;;;;;;;5103483;28;20035;-59
2021/03/19 09:57:05;;;;;;;5.93;1.40;;;;;;;;;;5086677;28;20102;-59
2021/03/19 09:59:33;;;;;;;2.08;0.55;;;;;;;;;;5070869;28;20235;-60
2021/03/19 10:01:59;;;;;;;4.15;0.95;;;;;;;;;;5084758;28;20055;-61
2021/03/19 10:04:31;;;;;;;2.92;0.93;;;;;;;;;;5064956;28;20048;-60
2021/03/19 10:06:58;;;;;;;5.93;1.10;;;;;;;;;;5084879;28;20054;-61
2021/03/19 10:09:25;;;;;;;2.70;1.00;;;;;;;;;;5082763;28;20136;-62
2021/03/19 10:12:00;;;;;;;2.63;1.40;;;;;;;;;;5086628;28;20047;-61
2021/03/19 10:14:27;;;;;;;2.50;0.98;;;;;;;;;;5083398;28;20154;-62
2021/03/19 10:17:04;;;;;;;2.75;1.00;;;;;;;;;;5066018;28;20040;-62
2021/03/19 10:19:34;;;;;;;1.95;0.98;;;;;;;;;;5078396;28;20036;-63
2021/03/19 10:22:00;;;;;;;0.65;0.45;;;;;;;;;;5068089;28;20116;-62
2021/03/19 10:24:27;;;;;;;3.45;1.15;;;;;;;;;;5068609;28;20048;-61
2021/03/19 10:26:57;;;;;;;2.22;0.80;;;;;;;;;;5084173;28;20113;-62
2021/03/19 10:29:24;;;;;;;2.05;0.80;;;;;;;;;;5078344;28;20032;-61
2021/03/19 10:31:52;;;;;;;4.90;1.00;;;;;;;;;;5106176;28;20040;-60
2021/03/19 10:34:22;;;;;;;2.30;0.80;;;;;;;;;;5083963;28;20407;-61
2021/03/19 10:36:51;;;;;;;1.67;0.77;;;;;;;;;;5070465;28;20156;-62
2021/03/19 10:39:23;;;;;;;1.45;0.88;;;;;;;;;;5071341;28;20600;-62
2021/03/19 10:41:52;;;;;;;5.95;0.98;;;;;;;;;;5085529;28;20133;-61
2021/03/19 10:44:21;;;;;;;4.22;0.93;;;;;;;;;;5090700;28;20054;-60
2021/03/19 10:46:50;;;;;;;0.88;0.50;;;;;;;;;;5103792;28;20032;-62
2021/03/19 10:49:17;;;;;;;3.15;1.05;;;;;;;;;;5098278;28;20324;-61
2021/03/19 10:51:46;;;;;;;2.45;1.17;;;;;;;;;;5085109;28;20032;-62
2021/03/19 10:54:15;;;;;;;5.18;1.40;;;;;;;;;;5077615;28;20055;-61
2021/03/19 10:56:49;;;;;;;5.43;1.05;;;;;;;;;;5085820;28;20044;-62
2021/03/19 10:59:19;;;;;;;3.83;1.00;;;;;;;;;;5082341;28;20509;-62
2021/03/19 11:01:46;;;;;;;3.53;1.42;;;;;;;;;;5099303;28;20552;-63
2021/03/19 11:04:25;;;;;;;0.68;0.47;;;;;;;;;;5065844;28;20040;-61
2021/03/19 11:06:52;;;;;;;1.55;0.60;;;;;;;;;;5063553;28;20065;-62
2021/03/19 11:09:20;;;;;;;3.83;0.85;;;;;;;;;;5066265;28;20060;-62
2021/03/19 11:11:47;;;;;;;3.63;1.17;;;;;;;;;;5081935;28;20157;-61
2021/03/19 11:14:14;;;;;;;2.97;1.00;;;;;;;;;;5081268;28;20048;-62
2021/03/19 11:16:43;;;;;;;2.83;1.02;;;;;;;;;;5061866;28;20052;-61
2021/03/19 11:19:09;;;;;;;;;;;;;;;;;;5066761;28;20036;-61
2021/03/19 11:21:36;;;;;;;3.15;1.10;;;;;;;;;;5060476;28;20295;-62
2021/03/19 11:24:05;;;;;;;5.28;1.30;;;;;;;;;;5073189;28;20296;-62
2021/03/19 11:26:34;;;;;;;3.70;1.05;;;;;;;;;;5084136;28;20046;-62
2021/03/19 11:29:23;;;;;;;2.58;1.10;;;;;;;;;;5078370;28;20474;-61
2021/03/19 11:32:00;;;;;;;4.40;1.00;;;;;;;;;;5080626;28;20051;-62
2021/03/19 11:34:31;;;;;;;3.40;1.10;;;;;;;;;;5084896;28;20162;-62
2021/03/19 11:37:01;;;;;;;3.95;1.15;;;;;;;;;;5100807;28;20055;-62
2021/03/19 11:39:36;;;;;;;5.25;1.00;;;;;;;;;;5083762;28;20366;-60
2021/03/19 11:42:05;;;;;;;6.10;1.15;;;;;;;;;;5088471;28;20036;-62
2021/03/19 11:44:31;;;;;;;3.20;1.30;;;;;;;;;;5097552;28;20143;-60
2021/03/19 11:46:57;;;;;;;2.33;1.17;;;;;;;;;;5095520;28;20048;-60
2021/03/19 11:49:23;;;;;;;3.88;1.00;;;;;;;;;;5085533;28;20031;-63
2021/03/19 11:51:49;;;;;;;4.13;0.90;;;;;;;;;;5068907;28;20051;-61
2021/03/19 11:54:15;;;;;;;7.28;1.25;;;;;;;;;;5068975;28;20036;-62
2021/03/19 11:56:41;;;;;;;1.70;1.00;;;;;;;;;;5079421;28;20103;-61
2021/03/19 11:59:12;;;;;;;2.22;1.13;;;;;;;;;;5067883;28;20039;-60
2021/03/19 12:01:38;;;;;;;4.50;1.15;;;;;;;;;;5065100;28;20032;-60
2021/03/19 12:04:04;;;;;;;2.45;1.00;;;;;;;;;;5102295;28;20044;-62
2021/03/19 12:06:33;;;;;;;3.67;0.82;;;;;;;;;;5086450;28;20039;-62
2021/03/19 12:08:59;;;;;;;4.45;1.15;;;;;;;;;;5097410;28;20075;-62
2021/03/19 12:11:26;;;;;;;2.35;1.10;;;;;;;;;;5105862;28;20036;-62
2021/03/19 12:13:54;;;;;;;3.13;1.17;;;;;;;;;;5118496;27;20054;-62
2021/03/19 12:16:21;;;;;;;3.83;1.30;;;;;;;;;;5105228;28;20414;-63
2021/03/19 12:18:47;;;;;;;7.88;1.38;;;;;;;;;;5065704;28;20089;-62
2021/03/19 12:21:13;;;;;;;4.25;1.30;;;;;;;;;;5100059;28;20391;-61
2021/03/19 12:23:39;;;;;;;2.45;1.25;;;;;;;;;;5080089;28;20508;-61
2021/03/19 12:26:05;;;;;;;5.35;1.20;;;;;;;;;;5101751;28;20043;-61
2021/03/19 12:28:31;;;;;;;1.52;0.75;;;;;;;;;;5080842;28;20477;-62
2021/03/19 12:30:58;;;;;;;2.30;1.05;;;;;;;;;;5080881;28;20048;-62
2021/03/19 12:33:29;;;;;;;1.10;0.80;;;;;;;;;;5061002;28;20028;-61
2021/03/19 12:35:55;;;;;;;6.57;0.85;;;;;;;;;;5063184;28;20040;-62
2021/03/19 12:38:21;;;;;;;3.97;1.05;;;;;;;;;;5061472;28;20403;-63
2021/03/19 12:40:47;;;;;;;2.13;1.00;;;;;;;;;;5064814;28;20036;-61
2021/03/19 12:43:13;;;;;;;2.70;1.00;;;;;;;;;;5064228;28;20058;-60
2021/03/19 12:45:40;;;;;;;1.85;1.15;;;;;;;;;;5098339;28;20040;-60
2021/03/19 12:48:06;;;;;;;2.92;0.93;;;;;;;;;;5102382;28;20051;-61
2021/03/19 12:50:33;;;;;;;3.20;1.20;;;;;;;;;;5063226;28;20028;-61
2021/03/19 12:53:00;;;;;;;3.58;1.10;;;;;;;;;;5065003;28;20032;-61
2021/03/19 12:55:27;;;;;;;2.90;1.00;;;;;;;;;;5072424;28;20044;-63
2021/03/19 12:57:53;;;;;;;2.05;0.73;;;;;;;;;;5064535;28;20419;-62
2021/03/19 13:00:20;;;;;;;2.03;0.85;;;;;;;;;;5092217;28;20048;-61
2021/03/19 13:02:46;;;;;;;2.85;0.73;;;;;;;;;;5084484;28;20040;-63
2021/03/19 13:05:13;;;;;;;1.83;0.80;;;;;;;;;;5083917;28;20541;-62
2021/03/19 13:07:40;;;;;;;1.90;0.60;;;;;;;;;;5072801;28;20466;-60
2021/03/19 13:10:06;;;;;;;2.25;0.63;;;;;;;;;;5078611;28;20051;-60
2021/03/19 13:12:32;;;;;;;1.55;0.57;;;;;;;;;;5102461;28;20044;-62
2021/03/19 13:14:58;;;;;;;1.42;0.80;;;;;;;;;;5082148;28;20036;-62
2021/03/19 13:17:26;;;;;;;3.13;1.00;;;;;;;;;;5094444;28;20040;-61
2021/03/19 13:19:52;;;;;;;2.72;0.98;;;;;;;;;;5077994;28;20041;-60
2021/03/19 13:22:19;;;;;;;2.15;0.73;;;;;;;;;;5069718;28;20036;-61
2021/03/19 13:24:45;;;;;;;1.23;0.52;;;;;;;;;;5103625;28;20032;-61
2021/03/19 13:27:12;;;;;;;2.97;0.77;;;;;;;;;;5068719;28;20032;-63
2021/03/19 13:29:38;;;;;;;2.13;0.85;;;;;;;;;;5083816;28;20091;-61
2021/03/19 13:32:04;;;;;;;1.65;0.85;;;;;;;;;;5082985;28;20084;-60
2021/03/19 13:34:30;;;;;;;3.63;0.70;;;;;;;;;;5085382;28;20028;-61
2021/03/19 13:36:57;;;;;;;1.52;0.70;;;;;;;;;;5081130;28;20051;-61
2021/03/19 13:39:24;;;;;;;1.00;0.60;;;;;;;;;;5084206;28;20044;-62
2021/03/19 13:41:51;;;;;;;2.75;1.05;;;;;;;;;;5079847;28;20048;-62
2021/03/19 13:44:17;;;;;;;3.00;0.70;;;;;;;;;;5095867;28;20044;-62
2021/03/19 13:46:43;;;;;;;1.80;0.80;;;;;;;;;;5096344;28;20177;-62
2021/03/19 13:49:09;;;;;;;1.20;0.50;;;;;;;;;;5100916;28;20420;-61
2021/03/19 13:51:35;;;;;;;0.93;0.60;;;;;;;;;;5094278;28;20403;-61
2021/03/19 13:54:01;;;;;;;1.30;0.77;;;;;;;;;;5074661;28;20050;-61
2021/03/19 13:56:27;;;;;;;3.55;1.00;;;;;;;;;;5039503;28;20041;-63
2021/03/19 13:58:55;;;;;;;1.13;0.60;;;;;;;;;;5068671;28;20522;-61
2021/03/19 14:01:21;;;;;;;0.95;0.52;;;;;;;;;;5072157;28;20043;-60
2021/03/19 14:03:48;;;;;;;1.20;0.60;;;;;;;;;;5043094;28;20057;-63
2021/03/19 14:06:16;;;;;;;1.90;0.80;;;;;;;;;;5049142;28;20049;-61
2021/03/19 14:08:42;;;;;;;0.95;0.47;;;;;;;;;;5058605;28;20134;-62
2021/03/19 14:11:09;;;;;;;2.58;0.80;;;;;;;;;;5063086;28;20033;-61
2021/03/19 14:13:36;;;;;;;1.30;0.70;;;;;;;;;;5059988;28;20133;-62
2021/03/19 14:16:04;;;;;;;1.60;0.77;;;;;;;;;;5063074;28;20055;-62
2021/03/19 14:18:30;;;;;;;0.75;0.60;;;;;;;;;;5059767;28;20045;-61
2021/03/19 14:20:56;;;;;;;1.15;0.40;;;;;;;;;;5062929;28;20033;-61
2021/03/19 14:23:24;;;;;;;0.85;0.55;;;;;;;;;;5059342;28;20412;-62
2021/03/19 14:25:50;;;;;;;1.85;0.70;;;;;;;;;;5063238;28;20045;-62
2021/03/19 14:28:20;;;;;;;1.27;0.60;;;;;;;;;;5059597;28;20392;-62
2021/03/19 14:30:46;;;;;;;1.38;0.68;;;;;;;;;;5062238;28;20036;-61
2021/03/19 14:33:12;;;;;;;1.88;0.70;;;;;;;;;;5059958;28;20028;-61
2021/03/19 14:35:39;;;;;;;1.33;0.75;;;;;;;;;;5063170;28;20041;-63
2021/03/19 14:38:05;;;;;;;3.78;0.70;;;;;;;;;;5074743;28;20052;-62
2021/03/19 14:40:32;;;;;;;4.07;0.77;;;;;;;;;;5063262;28;20043;-61
2021/03/19 14:42:58;;;;;;;1.73;0.68;;;;;;;;;;5059706;28;20051;-61
2021/03/19 14:45:24;;;;;;;1.45;0.57;;;;;;;;;;5062004;28;20122;-62
2021/03/19 14:47:50;;;;;;;1.75;0.60;;;;;;;;;;5063039;28;20068;-63
2021/03/19 14:50:18;;;;;;;1.45;0.70;;;;;;;;;;5060631;28;20043;-61
2021/03/19 14:52:44;;;;;;;1.83;0.80;;;;;;;;;;5064161;28;20110;-63
2021/03/19 14:55:11;;;;;;;1.13;0.80;;;;;;;;;;5078680;28;20117;-61
2021/03/19 14:57:38;;;;;;;1.80;0.90;;;;;;;;;;5072632;28;20048;-61